Spirit of New Zealand — ZMSV — position and weather

sailwx.info

Track history (hours):
 
Tides and Currents Weather Stations Pressure Air Temp Water Temp Dewpoint Dewpoint Depression Visibility Wind Speed Wind Dir Waves Ship Positions

Spirit of New Zealand

Last reported at 2019-Jun-16 02:55 UTC. Time now 2019-Jun-16 15:09 UTC.
Position S 36°50' E 174°46'.

Length 37 m; draft 4.1 m.

Type: Passenger vessel. MMSI: 512201000.

Date/timePositionNaut miles runAvg speedWind from/ knotsBaromVisibWave heightAir tempDewpointWater temp
2019-Jun-16 02:55S 36°50' E 174°46'2 4.2
2019-Jun-16 02:31S 36°50' E 174°48'3 5.2
2019-Jun-16 02:00S 36°48' E 174°49'3 6.2
2019-Jun-16 01:31S 36°45' E 174°49'3 5.9
2019-Jun-16 01:00S 36°42' E 174°51'3 5.8
2019-Jun-16 00:31S 36°39' E 174°53'2 4.6
2019-Jun-16 00:01S 36°39' E 174°50'3 6.6
2019-Jun-15 23:30S 36°39' E 174°46'1 1.3
2019-Jun-15 22:59S 36°40' E 174°46'0 0.0
2019-Jun-15 22:29S 36°40' E 174°46'0 0.0
2019-Jun-15 21:59S 36°40' E 174°46'0 0.0
2019-Jun-15 21:29S 36°40' E 174°46'0 0.0
2019-Jun-15 20:59S 36°40' E 174°46'0 0.0
2019-Jun-15 20:29S 36°40' E 174°46'0 0.0
2019-Jun-15 19:59S 36°40' E 174°46'0 0.0
2019-Jun-15 19:29S 36°40' E 174°46'0 0.0
2019-Jun-15 18:53S 36°40' E 174°46'0 0.0
2019-Jun-15 18:29S 36°40' E 174°46'0 0.0
2019-Jun-15 17:53S 36°40' E 174°46'0 0.0
2019-Jun-15 17:29S 36°40' E 174°46'0 0.0
2019-Jun-15 16:59S 36°40' E 174°46'0 0.0
2019-Jun-15 16:17S 36°40' E 174°46'0 0.0
2019-Jun-15 15:53S 36°40' E 174°46'0 0.0
2019-Jun-15 15:17S 36°40' E 174°46'0 0.0
2019-Jun-15 14:47S 36°40' E 174°46'0 0.0
2019-Jun-15 13:53S 36°40' E 174°46'0 0.0
2019-Jun-15 13:11S 36°40' E 174°46'0 0.1
2019-Jun-15 12:59S 36°40' E 174°46'0 0.0
2019-Jun-15 11:53S 36°40' E 174°46'0 0.0
2019-Jun-15 10:47S 36°40' E 174°46'0 0.0
2019-Jun-15 10:29S 36°40' E 174°46'0 0.0
2019-Jun-15 09:59S 36°40' E 174°46'0 0.0
2019-Jun-15 09:29S 36°40' E 174°46'0 0.0
2019-Jun-15 08:59S 36°40' E 174°46'0 0.0
2019-Jun-15 08:29S 36°40' E 174°46'0 0.0
2019-Jun-15 07:59S 36°40' E 174°46'0 0.0
2019-Jun-15 07:23S 36°40' E 174°46'0 0.0
2019-Jun-15 06:59S 36°40' E 174°46'0 1.0
2019-Jun-15 06:30S 36°40' E 174°46'3 6.1
2019-Jun-15 06:01S 36°42' E 174°49'0 0.1
2019-Jun-15 05:31S 36°42' E 174°49'2 4.0
2019-Jun-15 05:01S 36°41' E 174°47'0 0.4
2019-Jun-15 04:31S 36°41' E 174°47'2 4.4
2019-Jun-15 04:01S 36°43' E 174°48'1 2.6
2019-Jun-15 03:30S 36°44' E 174°49'2 4.4
2019-Jun-15 03:00S 36°42' E 174°48'2 4.9
2019-Jun-15 02:31S 36°40' E 174°46'1 1.6
2019-Jun-15 02:01S 36°41' E 174°47'2 4.8
2019-Jun-15 01:31S 36°43' E 174°48'2 3.7
2019-Jun-15 01:01S 36°41' E 174°47'1 1.5
2019-Jun-15 00:31S 36°40' E 174°47'3 6.2
2019-Jun-15 00:00S 36°43' E 174°48'4 5.2
2019-Jun-14 23:17S 36°47' E 174°48'2 4.9
2019-Jun-14 22:57S 36°48' E 174°50'2 5.0
2019-Jun-14 22:30S 36°50' E 174°48'2 0.1
2019-Jun-14 03:47S 36°50' E 174°46'1 2.5
2019-Jun-14 03:30S 36°50' E 174°45'0 0.5
2019-Jun-14 02:42S 36°50' E 174°46'0 1.7
2019-Jun-14 02:29S 36°50' E 174°46'0 0.0
2019-Jun-14 01:59S 36°50' E 174°46'0 0.0
2019-Jun-14 01:29S 36°50' E 174°46'0 0.0
2019-Jun-14 00:59S 36°50' E 174°46'0 0.0
2019-Jun-14 00:29S 36°50' E 174°46'0 0.0
2019-Jun-13 23:59S 36°50' E 174°46'0 0.7
2019-Jun-13 23:29S 36°50' E 174°47'1 2.9
2019-Jun-13 23:00S 36°50' E 174°48'4 8.0
2019-Jun-13 22:30S 36°49' E 174°53'2 4.7
2019-Jun-13 21:59S 36°51' E 174°55'0 0.0
2019-Jun-13 21:29S 36°51' E 174°55'0 0.0
2019-Jun-13 20:59S 36°51' E 174°55'0 0.0
2019-Jun-13 20:29S 36°51' E 174°55'0 0.0
2019-Jun-13 19:59S 36°51' E 174°55'0 0.0
2019-Jun-13 19:29S 36°51' E 174°55'0 0.0
2019-Jun-13 18:59S 36°51' E 174°55'0 0.0
2019-Jun-13 18:29S 36°51' E 174°55'0 0.0
2019-Jun-13 17:59S 36°51' E 174°55'0 0.0
2019-Jun-13 17:29S 36°51' E 174°55'0 0.0
2019-Jun-13 16:59S 36°51' E 174°55'0 0.0
2019-Jun-13 16:29S 36°51' E 174°55'0 0.0
2019-Jun-13 15:59S 36°51' E 174°55'0 0.0
2019-Jun-13 15:29S 36°51' E 174°55'0 0.0
2019-Jun-13 14:59S 36°51' E 174°55'0 0.0
2019-Jun-13 14:11S 36°51' E 174°55'0 0.0
2019-Jun-13 13:59S 36°51' E 174°55'0 0.0
2019-Jun-13 13:29S 36°51' E 174°55'0 0.0
2019-Jun-13 12:59S 36°51' E 174°55'0 0.0
2019-Jun-13 12:29S 36°51' E 174°55'0 0.0
2019-Jun-13 11:59S 36°51' E 174°55'0 0.0
2019-Jun-13 11:29S 36°51' E 174°55'0 0.0
2019-Jun-13 10:59S 36°51' E 174°55'0 0.0
2019-Jun-13 10:29S 36°51' E 174°55'0 0.0
2019-Jun-13 09:59S 36°51' E 174°55'0 0.0
2019-Jun-13 09:29S 36°51' E 174°55'0 0.0
2019-Jun-13 08:59S 36°51' E 174°55'0 0.0
2019-Jun-13 08:29S 36°51' E 174°55'0 0.0
2019-Jun-13 07:59S 36°51' E 174°55'0 0.0
2019-Jun-13 07:29S 36°51' E 174°55'0 0.0
2019-Jun-13 06:59S 36°51' E 174°55'0 0.0
2019-Jun-13 06:29S 36°51' E 174°55'0 0.0
2019-Jun-13 05:59S 36°51' E 174°55'0 0.1
2019-Jun-13 05:29S 36°51' E 174°55'0 0.0
2019-Jun-13 04:59S 36°51' E 174°55'0 0.1
2019-Jun-13 04:29S 36°51' E 174°55'0 1.0
2019-Jun-13 04:00S 36°51' E 174°56'3 5.8
2019-Jun-13 03:30S 36°48' E 174°58'1 1.5
2019-Jun-13 02:47S 36°48' E 174°57'0 0.0
2019-Jun-13 01:17S 36°48' E 174°57'0 0.0
2019-Jun-13 00:59S 36°48' E 174°57'0 0.1
2019-Jun-13 00:29S 36°48' E 174°57'0 0.0
2019-Jun-12 23:59S 36°48' E 174°57'0 0.0
2019-Jun-12 23:29S 36°48' E 174°57'0 0.0
2019-Jun-12 22:59S 36°48' E 174°57'0 0.1
2019-Jun-12 22:29S 36°48' E 174°57'0 0.0
2019-Jun-12 21:59S 36°48' E 174°57'0 0.1
2019-Jun-12 21:29S 36°48' E 174°57'0 0.0
2019-Jun-12 18:11S 36°48' E 174°57'0 0.0
2019-Jun-12 17:59S 36°48' E 174°57'0 0.1
2019-Jun-12 17:29S 36°48' E 174°57'0 0.0
2019-Jun-12 16:59S 36°48' E 174°57'0 0.0
2019-Jun-12 16:29S 36°48' E 174°57'0 0.0
2019-Jun-12 15:59S 36°48' E 174°57'0 0.0
2019-Jun-12 15:29S 36°48' E 174°57'0 0.0
2019-Jun-12 14:59S 36°48' E 174°57'0 0.0
2019-Jun-12 14:29S 36°48' E 174°57'0 0.0
2019-Jun-12 13:59S 36°48' E 174°57'0 0.0
2019-Jun-12 13:29S 36°48' E 174°57'0 0.1
2019-Jun-12 12:59S 36°48' E 174°57'0 0.0
2019-Jun-12 12:29S 36°48' E 174°57'0 0.0
2019-Jun-12 11:53S 36°48' E 174°57'0 0.0
2019-Jun-12 10:17S 36°48' E 174°57'0 0.0
2019-Jun-12 09:59S 36°48' E 174°57'0 0.0
2019-Jun-12 05:47S 36°48' E 174°57'0 0.1
2019-Jun-12 05:29S 36°48' E 174°57'0 0.0
2019-Jun-12 04:59S 36°48' E 174°57'0 0.0
2019-Jun-12 04:29S 36°48' E 174°57'0 0.0
2019-Jun-12 03:56S 36°48' E 174°57'0 0.0
2019-Jun-12 03:05S 36°48' E 174°57'0 0.0
2019-Jun-12 02:59S 36°48' E 174°57'0 0.0
2019-Jun-12 02:26S 36°48' E 174°57'9 4.8
2019-Jun-12 00:38S 36°41' E 175°03'1 7.5
2019-Jun-12 00:27S 36°40' E 175°02'4 8.0
2019-Jun-11 23:58S 36°37' E 174°60'4 8.0
2019-Jun-11 23:30S 36°34' E 174°57'4 8.0
2019-Jun-11 23:00S 36°31' E 174°54'3 0.1
2019-Jun-10 22:58S 36°33' E 174°51'4 7.9
2019-Jun-10 22:26S 36°37' E 174°52'3 6.9
2019-Jun-10 22:00S 36°39' E 174°48'2 2.3
2019-Jun-10 21:02S 36°39' E 174°46'0 0.0
2019-Jun-10 20:38S 36°39' E 174°46'0 0.0
2019-Jun-10 20:26S 36°39' E 174°46'0 0.0
2019-Jun-10 19:56S 36°39' E 174°46'0 0.1
2019-Jun-10 19:20S 36°39' E 174°46'0 0.0
2019-Jun-10 18:56S 36°39' E 174°46'0 0.0
2019-Jun-10 18:14S 36°39' E 174°46'0 0.0
2019-Jun-10 17:56S 36°39' E 174°46'0 0.0
2019-Jun-10 16:56S 36°39' E 174°46'0 0.0
2019-Jun-10 16:26S 36°39' E 174°46'0 0.0
2019-Jun-10 15:56S 36°39' E 174°46'0 0.0
2019-Jun-10 15:20S 36°39' E 174°46'0 0.0
2019-Jun-10 14:26S 36°39' E 174°46'0 0.0
2019-Jun-10 13:56S 36°39' E 174°46'0 0.0
2019-Jun-10 13:26S 36°39' E 174°46'0 0.0
2019-Jun-10 12:56S 36°39' E 174°46'0 0.0
2019-Jun-10 12:20S 36°39' E 174°46'0 0.0
2019-Jun-10 11:43S 36°39' E 174°46'0 0.0
2019-Jun-10 11:25S 36°39' E 174°46'0 0.0
2019-Jun-10 10:56S 36°39' E 174°46'0 0.0
2019-Jun-10 10:26S 36°39' E 174°46'0 0.0
2019-Jun-10 09:55S 36°39' E 174°46'0 0.0
2019-Jun-10 09:26S 36°39' E 174°46'0 0.0
2019-Jun-10 08:50S 36°39' E 174°46'0 0.0
2019-Jun-10 08:13S 36°39' E 174°46'0 0.0
2019-Jun-10 07:49S 36°39' E 174°46'0 0.0
2019-Jun-10 07:14S 36°39' E 174°46'0 0.0
2019-Jun-10 06:43S 36°39' E 174°46'0 0.0
2019-Jun-10 05:49S 36°39' E 174°46'0 0.0
2019-Jun-10 05:25S 36°39' E 174°46'0 0.0
2019-Jun-10 04:55S 36°39' E 174°46'0 0.0
2019-Jun-10 04:26S 36°39' E 174°46'0 0.1
2019-Jun-10 03:55S 36°39' E 174°46'1 3.0
2019-Jun-10 03:30S 36°40' E 174°47'3 5.6
2019-Jun-10 03:00S 36°42' E 174°48'6 7.4
2019-Jun-10 02:09S 36°48' E 174°50'1 7.8
2019-Jun-10 02:00S 36°50' E 174°50'3 5.6
2019-Jun-10 01:30S 36°50' E 174°46'0 0.1
2019-Jun-10 01:00S 36°50' E 174°46'0 0.0
2019-Jun-10 00:30S 36°50' E 174°46'0 0.0
2019-Jun-10 00:00S 36°50' E 174°46'0 0.0
2019-Jun-09 23:30S 36°50' E 174°46'0 0.0
2019-Jun-09 23:00S 36°50' E 174°46'0 0.0
2019-Jun-09 22:30S 36°50' E 174°46'1 0.1
2019-Jun-09 15:35S 36°51' E 174°46'0 0.0
2019-Jun-09 15:17S 36°51' E 174°46'0 0.0
2019-Jun-09 03:47S 36°50' E 174°46'1 1.4
2019-Jun-09 03:25S 36°50' E 174°46'3 7.0
2019-Jun-09 03:00S 36°49' E 174°49'2 3.0
2019-Jun-09 02:28S 36°48' E 174°48'0 0.0
2019-Jun-09 01:58S 36°48' E 174°48'0 0.0
2019-Jun-09 01:28S 36°48' E 174°48'0 0.1
2019-Jun-09 00:52S 36°48' E 174°48'0 0.1
2019-Jun-09 00:27S 36°48' E 174°48'1 3.2
2019-Jun-09 00:00S 36°47' E 174°48'6 9.3
2019-Jun-08 23:24S 36°42' E 174°51'3 6.3
2019-Jun-08 22:51S 36°42' E 174°55'9 0.4
2019-Jun-07 23:34S 36°45' E 175°06'1 6.8
2019-Jun-07 23:24S 36°45' E 175°07'3 6.8
2019-Jun-07 23:00S 36°45' E 175°04'4 7.7
2019-Jun-07 22:28S 36°46' E 174°59'3 6.0
2019-Jun-07 22:00S 36°49' E 174°58'2 4.2
2019-Jun-07 21:29S 36°50' E 174°56'0 0.0
2019-Jun-07 20:59S 36°50' E 174°56'0 0.0
2019-Jun-07 20:29S 36°50' E 174°56'0 0.0
2019-Jun-07 19:59S 36°50' E 174°56'0 0.1
2019-Jun-07 19:29S 36°50' E 174°56'0 0.0
2019-Jun-07 18:53S 36°50' E 174°56'0 0.0
2019-Jun-07 18:29S 36°50' E 174°56'0 0.0
2019-Jun-07 17:59S 36°50' E 174°56'0 0.0
2019-Jun-07 17:29S 36°50' E 174°56'0 0.0
2019-Jun-07 16:59S 36°50' E 174°56'0 0.0
2019-Jun-07 16:29S 36°50' E 174°56'0 0.0
2019-Jun-07 15:59S 36°50' E 174°56'0 0.0
2019-Jun-07 15:29S 36°50' E 174°56'0 0.0
2019-Jun-07 14:59S 36°50' E 174°56'0 0.0
2019-Jun-07 14:29S 36°50' E 174°56'0 0.1
2019-Jun-07 13:59S 36°50' E 174°56'0 0.0
2019-Jun-07 13:29S 36°50' E 174°56'0 0.1
2019-Jun-07 12:59S 36°50' E 174°56'0 0.0
2019-Jun-07 12:29S 36°50' E 174°56'0 0.0
2019-Jun-07 11:59S 36°50' E 174°56'0 0.1
2019-Jun-07 11:29S 36°50' E 174°56'0 0.1
2019-Jun-07 10:59S 36°50' E 174°56'0 0.1
2019-Jun-07 10:29S 36°50' E 174°56'3 6.3
2019-Jun-07 10:00S 36°49' E 174°53'4 8.9
2019-Jun-07 09:30S 36°50' E 174°47'1 0.2
2019-Jun-07 03:47S 36°50' E 174°46'1 1.8
2019-Jun-07 03:30S 36°50' E 174°46'1 1.1
2019-Jun-07 03:00S 36°50' E 174°46'3 5.4
2019-Jun-07 02:30S 36°49' E 174°49'4 7.1
2019-Jun-07 02:00S 36°46' E 174°49'3 7.0
2019-Jun-07 01:30S 36°43' E 174°51'4 8.1
2019-Jun-07 01:00S 36°44' E 174°56'5 9.8
2019-Jun-07 00:30S 36°49' E 174°58'2 3.8
2019-Jun-06 23:58S 36°51' E 174°57'0 0.0
2019-Jun-06 23:28S 36°51' E 174°57'0 0.0
2019-Jun-06 22:58S 36°51' E 174°57'0 0.0
2019-Jun-06 22:28S 36°51' E 174°57'0 0.0
2019-Jun-06 21:58S 36°51' E 174°57'0 0.0
2019-Jun-06 21:28S 36°51' E 174°57'0 0.1
2019-Jun-06 20:58S 36°51' E 174°57'0 0.0
2019-Jun-06 20:28S 36°51' E 174°57'0 0.0
2019-Jun-06 19:58S 36°51' E 174°57'0 0.1
2019-Jun-06 19:28S 36°51' E 174°57'0 0.0
2019-Jun-06 18:46S 36°51' E 174°57'0 0.0
2019-Jun-06 17:31S 36°51' E 174°57'0 0.1
2019-Jun-06 17:28S 36°51' E 174°57'0 0.0
2019-Jun-06 15:22S 36°51' E 174°57'0 0.0
2019-Jun-06 14:52S 36°51' E 174°57'0 0.0
2019-Jun-06 13:28S 36°51' E 174°57'0 0.0
2019-Jun-06 12:46S 36°51' E 174°57'0 0.0
2019-Jun-06 12:22S 36°51' E 174°57'0 0.0
2019-Jun-06 11:52S 36°51' E 174°57'0 0.0
2019-Jun-06 11:28S 36°51' E 174°57'0 0.0
2019-Jun-06 10:58S 36°51' E 174°57'0 0.0
2019-Jun-06 10:28S 36°51' E 174°57'0 0.0
2019-Jun-06 09:58S 36°51' E 174°57'0 0.0
2019-Jun-06 09:28S 36°51' E 174°57'0 0.0
2019-Jun-06 08:58S 36°51' E 174°57'0 0.0
2019-Jun-06 08:28S 36°51' E 174°57'0 0.0
2019-Jun-06 07:55S 36°51' E 174°57'0 0.1
2019-Jun-06 07:22S 36°51' E 174°57'2 6.0
2019-Jun-06 07:00S 36°49' E 174°58'1 2.0
2019-Jun-06 06:27S 36°48' E 174°57'0 0.0
2019-Jun-06 06:00S 36°48' E 174°57'0 0.0
2019-Jun-06 05:30S 36°48' E 174°57'0 0.0
2019-Jun-06 04:30S 36°48' E 174°57'0 0.0
2019-Jun-06 03:42S 36°48' E 174°57'0 0.0
2019-Jun-06 03:27S 36°48' E 174°57'  
Track history (hours):
 
Tides and Currents Weather Stations Pressure Air Temp Water Temp Dewpoint Dewpoint Depression Visibility Wind Speed Wind Dir Waves Ship Positions

Spirit of New Zealand

Last reported at 2019-Jun-16 02:55 UTC. Time now 2019-Jun-16 15:09 UTC.
Position S 36°50' E 174°46'.

Length 37 m; draft 4.1 m.

Type: Passenger vessel. MMSI: 512201000.

Date/timePositionNaut miles runAvg speedWind from/ knotsBaromVisibWave heightAir tempDewpointWater temp
2019-Jun-16 02:55S 36°50' E 174°46'2 4.2
2019-Jun-16 02:31S 36°50' E 174°48'3 5.2
2019-Jun-16 02:00S 36°48' E 174°49'3 6.2
2019-Jun-16 01:31S 36°45' E 174°49'3 5.9
2019-Jun-16 01:00S 36°42' E 174°51'3 5.8
2019-Jun-16 00:31S 36°39' E 174°53'2 4.6
2019-Jun-16 00:01S 36°39' E 174°50'3 6.6
2019-Jun-15 23:30S 36°39' E 174°46'1 1.3
2019-Jun-15 22:59S 36°40' E 174°46'0 0.0
2019-Jun-15 22:29S 36°40' E 174°46'0 0.0
2019-Jun-15 21:59S 36°40' E 174°46'0 0.0
2019-Jun-15 21:29S 36°40' E 174°46'0 0.0
2019-Jun-15 20:59S 36°40' E 174°46'0 0.0
2019-Jun-15 20:29S 36°40' E 174°46'0 0.0
2019-Jun-15 19:59S 36°40' E 174°46'0 0.0
2019-Jun-15 19:29S 36°40' E 174°46'0 0.0
2019-Jun-15 18:53S 36°40' E 174°46'0 0.0
2019-Jun-15 18:29S 36°40' E 174°46'0 0.0
2019-Jun-15 17:53S 36°40' E 174°46'0 0.0
2019-Jun-15 17:29S 36°40' E 174°46'0 0.0
2019-Jun-15 16:59S 36°40' E 174°46'0 0.0
2019-Jun-15 16:17S 36°40' E 174°46'0 0.0
2019-Jun-15 15:53S 36°40' E 174°46'0 0.0
2019-Jun-15 15:17S 36°40' E 174°46'0 0.0
2019-Jun-15 14:47S 36°40' E 174°46'0 0.0
2019-Jun-15 13:53S 36°40' E 174°46'0 0.0
2019-Jun-15 13:11S 36°40' E 174°46'0 0.1
2019-Jun-15 12:59S 36°40' E 174°46'0 0.0
2019-Jun-15 11:53S 36°40' E 174°46'0 0.0
2019-Jun-15 10:47S 36°40' E 174°46'0 0.0
2019-Jun-15 10:29S 36°40' E 174°46'0 0.0
2019-Jun-15 09:59S 36°40' E 174°46'0 0.0
2019-Jun-15 09:29S 36°40' E 174°46'0 0.0
2019-Jun-15 08:59S 36°40' E 174°46'0 0.0
2019-Jun-15 08:29S 36°40' E 174°46'0 0.0
2019-Jun-15 07:59S 36°40' E 174°46'0 0.0
2019-Jun-15 07:23S 36°40' E 174°46'0 0.0
2019-Jun-15 06:59S 36°40' E 174°46'0 1.0
2019-Jun-15 06:30S 36°40' E 174°46'3 6.1
2019-Jun-15 06:01S 36°42' E 174°49'0 0.1
2019-Jun-15 05:31S 36°42' E 174°49'2 4.0
2019-Jun-15 05:01S 36°41' E 174°47'0 0.4
2019-Jun-15 04:31S 36°41' E 174°47'2 4.4
2019-Jun-15 04:01S 36°43' E 174°48'1 2.6
2019-Jun-15 03:30S 36°44' E 174°49'2 4.4
2019-Jun-15 03:00S 36°42' E 174°48'2 4.9
2019-Jun-15 02:31S 36°40' E 174°46'1 1.6
2019-Jun-15 02:01S 36°41' E 174°47'2 4.8
2019-Jun-15 01:31S 36°43' E 174°48'2 3.7
2019-Jun-15 01:01S 36°41' E 174°47'1 1.5
2019-Jun-15 00:31S 36°40' E 174°47'3 6.2
2019-Jun-15 00:00S 36°43' E 174°48'4 5.2
2019-Jun-14 23:17S 36°47' E 174°48'2 4.9
2019-Jun-14 22:57S 36°48' E 174°50'2 5.0
2019-Jun-14 22:30S 36°50' E 174°48'2 0.1
2019-Jun-14 03:47S 36°50' E 174°46'1 2.5
2019-Jun-14 03:30S 36°50' E 174°45'0 0.5
2019-Jun-14 02:42S 36°50' E 174°46'0 1.7
2019-Jun-14 02:29S 36°50' E 174°46'0 0.0
2019-Jun-14 01:59S 36°50' E 174°46'0 0.0
2019-Jun-14 01:29S 36°50' E 174°46'0 0.0
2019-Jun-14 00:59S 36°50' E 174°46'0 0.0
2019-Jun-14 00:29S 36°50' E 174°46'0 0.0
2019-Jun-13 23:59S 36°50' E 174°46'0 0.7
2019-Jun-13 23:29S 36°50' E 174°47'1 2.9
2019-Jun-13 23:00S 36°50' E 174°48'4 8.0
2019-Jun-13 22:30S 36°49' E 174°53'2 4.7
2019-Jun-13 21:59S 36°51' E 174°55'0 0.0
2019-Jun-13 21:29S 36°51' E 174°55'0 0.0
2019-Jun-13 20:59S 36°51' E 174°55'0 0.0
2019-Jun-13 20:29S 36°51' E 174°55'0 0.0
2019-Jun-13 19:59S 36°51' E 174°55'0 0.0
2019-Jun-13 19:29S 36°51' E 174°55'0 0.0
2019-Jun-13 18:59S 36°51' E 174°55'0 0.0
2019-Jun-13 18:29S 36°51' E 174°55'0 0.0
2019-Jun-13 17:59S 36°51' E 174°55'0 0.0
2019-Jun-13 17:29S 36°51' E 174°55'0 0.0
2019-Jun-13 16:59S 36°51' E 174°55'0 0.0
2019-Jun-13 16:29S 36°51' E 174°55'0 0.0
2019-Jun-13 15:59S 36°51' E 174°55'0 0.0
2019-Jun-13 15:29S 36°51' E 174°55'0 0.0
2019-Jun-13 14:59S 36°51' E 174°55'0 0.0
2019-Jun-13 14:11S 36°51' E 174°55'0 0.0
2019-Jun-13 13:59S 36°51' E 174°55'0 0.0
2019-Jun-13 13:29S 36°51' E 174°55'0 0.0
2019-Jun-13 12:59S 36°51' E 174°55'0 0.0
2019-Jun-13 12:29S 36°51' E 174°55'0 0.0
2019-Jun-13 11:59S 36°51' E 174°55'0 0.0
2019-Jun-13 11:29S 36°51' E 174°55'0 0.0
2019-Jun-13 10:59S 36°51' E 174°55'0 0.0
2019-Jun-13 10:29S 36°51' E 174°55'0 0.0
2019-Jun-13 09:59S 36°51' E 174°55'0 0.0
2019-Jun-13 09:29S 36°51' E 174°55'0 0.0
2019-Jun-13 08:59S 36°51' E 174°55'0 0.0
2019-Jun-13 08:29S 36°51' E 174°55'0 0.0
2019-Jun-13 07:59S 36°51' E 174°55'0 0.0
2019-Jun-13 07:29S 36°51' E 174°55'0 0.0
2019-Jun-13 06:59S 36°51' E 174°55'0 0.0
2019-Jun-13 06:29S 36°51' E 174°55'0 0.0
2019-Jun-13 05:59S 36°51' E 174°55'0 0.1
2019-Jun-13 05:29S 36°51' E 174°55'0 0.0
2019-Jun-13 04:59S 36°51' E 174°55'0 0.1
2019-Jun-13 04:29S 36°51' E 174°55'0 1.0
2019-Jun-13 04:00S 36°51' E 174°56'3 5.8
2019-Jun-13 03:30S 36°48' E 174°58'1 1.5
2019-Jun-13 02:47S 36°48' E 174°57'0 0.0
2019-Jun-13 01:17S 36°48' E 174°57'0 0.0
2019-Jun-13 00:59S 36°48' E 174°57'0 0.1
2019-Jun-13 00:29S 36°48' E 174°57'0 0.0
2019-Jun-12 23:59S 36°48' E 174°57'0 0.0
2019-Jun-12 23:29S 36°48' E 174°57'0 0.0
2019-Jun-12 22:59S 36°48' E 174°57'0 0.1
2019-Jun-12 22:29S 36°48' E 174°57'0 0.0
2019-Jun-12 21:59S 36°48' E 174°57'0 0.1
2019-Jun-12 21:29S 36°48' E 174°57'0 0.0
2019-Jun-12 18:11S 36°48' E 174°57'0 0.0
2019-Jun-12 17:59S 36°48' E 174°57'0 0.1
2019-Jun-12 17:29S 36°48' E 174°57'0 0.0
2019-Jun-12 16:59S 36°48' E 174°57'0 0.0
2019-Jun-12 16:29S 36°48' E 174°57'0 0.0
2019-Jun-12 15:59S 36°48' E 174°57'0 0.0
2019-Jun-12 15:29S 36°48' E 174°57'0 0.0
2019-Jun-12 14:59S 36°48' E 174°57'0 0.0
2019-Jun-12 14:29S 36°48' E 174°57'0 0.0
2019-Jun-12 13:59S 36°48' E 174°57'0 0.0
2019-Jun-12 13:29S 36°48' E 174°57'0 0.1
2019-Jun-12 12:59S 36°48' E 174°57'0 0.0
2019-Jun-12 12:29S 36°48' E 174°57'0 0.0
2019-Jun-12 11:53S 36°48' E 174°57'0 0.0
2019-Jun-12 10:17S 36°48' E 174°57'0 0.0
2019-Jun-12 09:59S 36°48' E 174°57'0 0.0
2019-Jun-12 05:47S 36°48' E 174°57'0 0.1
2019-Jun-12 05:29S 36°48' E 174°57'0 0.0
2019-Jun-12 04:59S 36°48' E 174°57'0 0.0
2019-Jun-12 04:29S 36°48' E 174°57'0 0.0
2019-Jun-12 03:56S 36°48' E 174°57'0 0.0
2019-Jun-12 03:05S 36°48' E 174°57'0 0.0
2019-Jun-12 02:59S 36°48' E 174°57'0 0.0
2019-Jun-12 02:26S 36°48' E 174°57'9 4.8
2019-Jun-12 00:38S 36°41' E 175°03'1 7.5
2019-Jun-12 00:27S 36°40' E 175°02'4 8.0
2019-Jun-11 23:58S 36°37' E 174°60'4 8.0
2019-Jun-11 23:30S 36°34' E 174°57'4 8.0
2019-Jun-11 23:00S 36°31' E 174°54'3 0.1
2019-Jun-10 22:58S 36°33' E 174°51'4 7.9
2019-Jun-10 22:26S 36°37' E 174°52'3 6.9
2019-Jun-10 22:00S 36°39' E 174°48'2 2.3
2019-Jun-10 21:02S 36°39' E 174°46'0 0.0
2019-Jun-10 20:38S 36°39' E 174°46'0 0.0
2019-Jun-10 20:26S 36°39' E 174°46'0 0.0
2019-Jun-10 19:56S 36°39' E 174°46'0 0.1
2019-Jun-10 19:20S 36°39' E 174°46'0 0.0
2019-Jun-10 18:56S 36°39' E 174°46'0 0.0
2019-Jun-10 18:14S 36°39' E 174°46'0 0.0
2019-Jun-10 17:56S 36°39' E 174°46'0 0.0
2019-Jun-10 16:56S 36°39' E 174°46'0 0.0
2019-Jun-10 16:26S 36°39' E 174°46'0 0.0
2019-Jun-10 15:56S 36°39' E 174°46'0 0.0
2019-Jun-10 15:20S 36°39' E 174°46'0 0.0
2019-Jun-10 14:26S 36°39' E 174°46'0 0.0
2019-Jun-10 13:56S 36°39' E 174°46'0 0.0
2019-Jun-10 13:26S 36°39' E 174°46'0 0.0
2019-Jun-10 12:56S 36°39' E 174°46'0 0.0
2019-Jun-10 12:20S 36°39' E 174°46'0 0.0
2019-Jun-10 11:43S 36°39' E 174°46'0 0.0
2019-Jun-10 11:25S 36°39' E 174°46'0 0.0
2019-Jun-10 10:56S 36°39' E 174°46'0 0.0
2019-Jun-10 10:26S 36°39' E 174°46'0 0.0
2019-Jun-10 09:55S 36°39' E 174°46'0 0.0
2019-Jun-10 09:26S 36°39' E 174°46'0 0.0
2019-Jun-10 08:50S 36°39' E 174°46'0 0.0
2019-Jun-10 08:13S 36°39' E 174°46'0 0.0
2019-Jun-10 07:49S 36°39' E 174°46'0 0.0
2019-Jun-10 07:14S 36°39' E 174°46'0 0.0
2019-Jun-10 06:43S 36°39' E 174°46'0 0.0
2019-Jun-10 05:49S 36°39' E 174°46'0 0.0
2019-Jun-10 05:25S 36°39' E 174°46'0 0.0
2019-Jun-10 04:55S 36°39' E 174°46'0 0.0
2019-Jun-10 04:26S 36°39' E 174°46'0 0.1
2019-Jun-10 03:55S 36°39' E 174°46'1 3.0
2019-Jun-10 03:30S 36°40' E 174°47'3 5.6
2019-Jun-10 03:00S 36°42' E 174°48'6 7.4
2019-Jun-10 02:09S 36°48' E 174°50'1 7.8
2019-Jun-10 02:00S 36°50' E 174°50'3 5.6
2019-Jun-10 01:30S 36°50' E 174°46'0 0.1
2019-Jun-10 01:00S 36°50' E 174°46'0 0.0
2019-Jun-10 00:30S 36°50' E 174°46'0 0.0
2019-Jun-10 00:00S 36°50' E 174°46'0 0.0
2019-Jun-09 23:30S 36°50' E 174°46'0 0.0
2019-Jun-09 23:00S 36°50' E 174°46'0 0.0
2019-Jun-09 22:30S 36°50' E 174°46'1 0.1
2019-Jun-09 15:35S 36°51' E 174°46'0 0.0
2019-Jun-09 15:17S 36°51' E 174°46'0 0.0
2019-Jun-09 03:47S 36°50' E 174°46'1 1.4
2019-Jun-09 03:25S 36°50' E 174°46'3 7.0
2019-Jun-09 03:00S 36°49' E 174°49'2 3.0
2019-Jun-09 02:28S 36°48' E 174°48'0 0.0
2019-Jun-09 01:58S 36°48' E 174°48'0 0.0
2019-Jun-09 01:28S 36°48' E 174°48'0 0.1
2019-Jun-09 00:52S 36°48' E 174°48'0 0.1
2019-Jun-09 00:27S 36°48' E 174°48'1 3.2
2019-Jun-09 00:00S 36°47' E 174°48'6 9.3
2019-Jun-08 23:24S 36°42' E 174°51'3 6.3
2019-Jun-08 22:51S 36°42' E 174°55'9 0.4
2019-Jun-07 23:34S 36°45' E 175°06'1 6.8
2019-Jun-07 23:24S 36°45' E 175°07'3 6.8
2019-Jun-07 23:00S 36°45' E 175°04'4 7.7
2019-Jun-07 22:28S 36°46' E 174°59'3 6.0
2019-Jun-07 22:00S 36°49' E 174°58'2 4.2
2019-Jun-07 21:29S 36°50' E 174°56'0 0.0
2019-Jun-07 20:59S 36°50' E 174°56'0 0.0
2019-Jun-07 20:29S 36°50' E 174°56'0 0.0
2019-Jun-07 19:59S 36°50' E 174°56'0 0.1
2019-Jun-07 19:29S 36°50' E 174°56'0 0.0
2019-Jun-07 18:53S 36°50' E 174°56'0 0.0
2019-Jun-07 18:29S 36°50' E 174°56'0 0.0
2019-Jun-07 17:59S 36°50' E 174°56'0 0.0
2019-Jun-07 17:29S 36°50' E 174°56'0 0.0
2019-Jun-07 16:59S 36°50' E 174°56'0 0.0
2019-Jun-07 16:29S 36°50' E 174°56'0 0.0
2019-Jun-07 15:59S 36°50' E 174°56'0 0.0
2019-Jun-07 15:29S 36°50' E 174°56'0 0.0
2019-Jun-07 14:59S 36°50' E 174°56'0 0.0
2019-Jun-07 14:29S 36°50' E 174°56'0 0.1
2019-Jun-07 13:59S 36°50' E 174°56'0 0.0
2019-Jun-07 13:29S 36°50' E 174°56'0 0.1
2019-Jun-07 12:59S 36°50' E 174°56'0 0.0
2019-Jun-07 12:29S 36°50' E 174°56'0 0.0
2019-Jun-07 11:59S 36°50' E 174°56'0 0.1
2019-Jun-07 11:29S 36°50' E 174°56'0 0.1
2019-Jun-07 10:59S 36°50' E 174°56'0 0.1
2019-Jun-07 10:29S 36°50' E 174°56'3 6.3
2019-Jun-07 10:00S 36°49' E 174°53'4 8.9
2019-Jun-07 09:30S 36°50' E 174°47'1 0.2
2019-Jun-07 03:47S 36°50' E 174°46'1 1.8
2019-Jun-07 03:30S 36°50' E 174°46'1 1.1
2019-Jun-07 03:00S 36°50' E 174°46'3 5.4
2019-Jun-07 02:30S 36°49' E 174°49'4 7.1
2019-Jun-07 02:00S 36°46' E 174°49'3 7.0
2019-Jun-07 01:30S 36°43' E 174°51'4 8.1
2019-Jun-07 01:00S 36°44' E 174°56'5 9.8
2019-Jun-07 00:30S 36°49' E 174°58'2 3.8
2019-Jun-06 23:58S 36°51' E 174°57'0 0.0
2019-Jun-06 23:28S 36°51' E 174°57'0 0.0
2019-Jun-06 22:58S 36°51' E 174°57'0 0.0
2019-Jun-06 22:28S 36°51' E 174°57'0 0.0
2019-Jun-06 21:58S 36°51' E 174°57'0 0.0
2019-Jun-06 21:28S 36°51' E 174°57'0 0.1
2019-Jun-06 20:58S 36°51' E 174°57'0 0.0
2019-Jun-06 20:28S 36°51' E 174°57'0 0.0
2019-Jun-06 19:58S 36°51' E 174°57'0 0.1
2019-Jun-06 19:28S 36°51' E 174°57'0 0.0
2019-Jun-06 18:46S 36°51' E 174°57'0 0.0
2019-Jun-06 17:31S 36°51' E 174°57'0 0.1
2019-Jun-06 17:28S 36°51' E 174°57'0 0.0
2019-Jun-06 15:22S 36°51' E 174°57'0 0.0
2019-Jun-06 14:52S 36°51' E 174°57'0 0.0
2019-Jun-06 13:28S 36°51' E 174°57'0 0.0
2019-Jun-06 12:46S 36°51' E 174°57'0 0.0
2019-Jun-06 12:22S 36°51' E 174°57'0 0.0
2019-Jun-06 11:52S 36°51' E 174°57'0 0.0
2019-Jun-06 11:28S 36°51' E 174°57'0 0.0
2019-Jun-06 10:58S 36°51' E 174°57'0 0.0
2019-Jun-06 10:28S 36°51' E 174°57'0 0.0
2019-Jun-06 09:58S 36°51' E 174°57'0 0.0
2019-Jun-06 09:28S 36°51' E 174°57'0 0.0
2019-Jun-06 08:58S 36°51' E 174°57'0 0.0
2019-Jun-06 08:28S 36°51' E 174°57'0 0.0
2019-Jun-06 07:55S 36°51' E 174°57'0 0.1
2019-Jun-06 07:22S 36°51' E 174°57'2 6.0
2019-Jun-06 07:00S 36°49' E 174°58'1 2.0
2019-Jun-06 06:27S 36°48' E 174°57'0 0.0
2019-Jun-06 06:00S 36°48' E 174°57'0 0.0
2019-Jun-06 05:30S 36°48' E 174°57'0 0.0
2019-Jun-06 04:30S 36°48' E 174°57'0 0.0
2019-Jun-06 03:42S 36°48' E 174°57'0 0.0
2019-Jun-06 03:27S 36°48' E 174°57'  

Dump ship's entire track history